BIENTÔT MET'MAP
version 2.0 !

Prévue avant fin octobre,
la nouvelle version sera
plus belle, plus complète
et hébergée sur un serveur
3 fois plus puissant...
et toujours gratuite !


Pas compatible ?
Essayez la version Mobile !

SE CONNECTER : | S'inscrire | Disclaimer | Découvrir Orbifly |
Code OACI :
LŽgende : VFR VFR Marginal IFR IFR Intensif IFR TrŽs Intensif
Visi :
Plafond :
>= 8 km
>= 3000ft
5 ˆ 8 km
1000 ˆ 3000 ft
1500m ˆ 5 km
500 ˆ 1000 ft
800 ˆ 1500m
200 ˆ 500 ft
< 800m
< 200 ft

METAR - LIBA Amendola Foggia - 20 Oct 2019 21:24 UTC - Data Source NOAA   


- Altitude de l'aérodrome : 183 ft
- Pas de NOTAMs connus.


LIBA - Amendola Foggia

Dernier METAR connu : 2015/08/11 07:55 LIBA 110755Z 29008KT 9999 SCT020 BKN060 27/23 Q1011 RMK BKN VIS MIN 9999 WIND THR29 28010KT BLU
TAF TAF LIBA
Valide du 20 à 18h jusqu'au 21 à 03h UTC


201700Z 2018/2103 09008KT CAVOK
BECMG 2020/2022 VRB03KT
TEMPO 2023/2103 5000 BR FEW010

Source NOAA


MET'MAP, la Météo Aéronautique d'un coup d'oeil ! - Copyright ORBIFLY Décembre 2007

Développement & Programmation : Alexandra Zaïnal
Co-Développement : Marc-Olivier Méhu
Soutien technique & logistique : Manuel Goepfert
Conception & Financement : Baudouin d'Aumeries